sensor_id;sensor_type;location;lat;lon;timestamp;temperature;humidity
53152;DHT22;39234;53.158;6.322;2023-03-14T00:01:12;8.90;99.90
53152;DHT22;39234;53.158;6.322;2023-03-14T00:03:39;9.10;99.90
53152;DHT22;39234;53.158;6.322;2023-03-14T00:06:06;9.10;99.90
53152;DHT22;39234;53.158;6.322;2023-03-14T00:08:32;9.10;99.90
53152;DHT22;39234;53.158;6.322;2023-03-14T00:10:57;9.20;99.90
53152;DHT22;39234;53.158;6.322;2023-03-14T00:13:24;9.30;99.90
53152;DHT22;39234;53.158;6.322;2023-03-14T00:15:50;9.20;99.90
53152;DHT22;39234;53.158;6.322;2023-03-14T00:18:15;9.10;99.90
53152;DHT22;39234;53.158;6.322;2023-03-14T00:20:41;9.10;99.90
53152;DHT22;39234;53.158;6.322;2023-03-14T00:23:07;9.40;99.90
53152;DHT22;39234;53.158;6.322;2023-03-14T00:25:32;9.30;99.90
53152;DHT22;39234;53.158;6.322;2023-03-14T00:27:58;9.30;99.90
53152;DHT22;39234;53.158;6.322;2023-03-14T00:30:24;9.40;99.90
53152;DHT22;39234;53.158;6.322;2023-03-14T00:32:49;9.40;99.90
53152;DHT22;39234;53.158;6.322;2023-03-14T00:35:15;9.30;99.90
53152;DHT22;39234;53.158;6.322;2023-03-14T00:37:41;9.30;99.90
53152;DHT22;39234;53.158;6.322;2023-03-14T00:40:08;9.20;99.90
53152;DHT22;39234;53.158;6.322;2023-03-14T00:42:34;9.20;99.90
53152;DHT22;39234;53.158;6.322;2023-03-14T00:45:00;9.20;99.90
53152;DHT22;39234;53.158;6.322;2023-03-14T00:47:25;9.10;99.90
53152;DHT22;39234;53.158;6.322;2023-03-14T00:49:51;9.30;99.90
53152;DHT22;39234;53.158;6.322;2023-03-14T00:52:17;9.20;99.90
53152;DHT22;39234;53.158;6.322;2023-03-14T00:54:43;9.10;99.90
53152;DHT22;39234;53.158;6.322;2023-03-14T00:57:08;9.10;99.90
53152;DHT22;39234;53.158;6.322;2023-03-14T00:59:34;9.90;99.90
53152;DHT22;39234;53.158;6.322;2023-03-14T01:02:00;9.20;99.90
53152;DHT22;39234;53.158;6.322;2023-03-14T01:04:25;9.30;99.90
53152;DHT22;39234;53.158;6.322;2023-03-14T01:06:51;9.10;99.90
53152;DHT22;39234;53.158;6.322;2023-03-14T01:09:17;9.20;99.90
53152;DHT22;39234;53.158;6.322;2023-03-14T01:11:43;9.10;99.90
53152;DHT22;39234;53.158;6.322;2023-03-14T01:14:12;9.40;99.90
53152;DHT22;39234;53.158;6.322;2023-03-14T01:16:38;9.30;99.90
53152;DHT22;39234;53.158;6.322;2023-03-14T01:19:04;9.40;99.90
53152;DHT22;39234;53.158;6.322;2023-03-14T01:21:32;9.40;99.90
53152;DHT22;39234;53.158;6.322;2023-03-14T01:23:59;9.40;99.90
53152;DHT22;39234;53.158;6.322;2023-03-14T01:26:26;9.70;99.90
53152;DHT22;39234;53.158;6.322;2023-03-14T01:28:54;9.80;99.90
53152;DHT22;39234;53.158;6.322;2023-03-14T01:31:20;9.70;99.90
53152;DHT22;39234;53.158;6.322;2023-03-14T01:33:47;9.90;99.90
53152;DHT22;39234;53.158;6.322;2023-03-14T01:36:13;9.80;99.90
53152;DHT22;39234;53.158;6.322;2023-03-14T01:38:40;9.50;99.90
53152;DHT22;39234;53.158;6.322;2023-03-14T01:41:08;9.60;99.90
53152;DHT22;39234;53.158;6.322;2023-03-14T01:43:37;9.70;99.90
53152;DHT22;39234;53.158;6.322;2023-03-14T01:49:05;9.60;99.90
53152;DHT22;39234;53.158;6.322;2023-03-14T01:54:19;9.70;99.90
53152;DHT22;39234;53.158;6.322;2023-03-14T01:56:50;9.80;99.90
53152;DHT22;39234;53.158;6.322;2023-03-14T01:59:16;9.50;99.90
53152;DHT22;39234;53.158;6.322;2023-03-14T02:01:44;9.50;99.90
53152;DHT22;39234;53.158;6.322;2023-03-14T02:04:13;9.50;99.90
53152;DHT22;39234;53.158;6.322;2023-03-14T02:07:03;9.40;99.90
53152;DHT22;39234;53.158;6.322;2023-03-14T02:09:30;9.50;99.90
53152;DHT22;39234;53.158;6.322;2023-03-14T02:11:56;9.60;99.90
53152;DHT22;39234;53.158;6.322;2023-03-14T02:14:30;9.30;99.90
53152;DHT22;39234;53.158;6.322;2023-03-14T02:16:56;9.50;99.90
53152;DHT22;39234;53.158;6.322;2023-03-14T02:22:15;9.40;99.90
53152;DHT22;39234;53.158;6.322;2023-03-14T02:24:58;9.60;99.90
53152;DHT22;39234;53.158;6.322;2023-03-14T02:27:28;9.20;99.90
53152;DHT22;39234;53.158;6.322;2023-03-14T02:30:05;9.40;99.90
53152;DHT22;39234;53.158;6.322;2023-03-14T02:32:33;9.30;99.90
53152;DHT22;39234;53.158;6.322;2023-03-14T02:35:03;9.10;99.90
53152;DHT22;39234;53.158;6.322;2023-03-14T02:37:59;9.00;99.90
53152;DHT22;39234;53.158;6.322;2023-03-14T02:40:23;9.10;99.90
53152;DHT22;39234;53.158;6.322;2023-03-14T02:42:49;9.00;99.90
53152;DHT22;39234;53.158;6.322;2023-03-14T02:47:49;8.80;99.90
53152;DHT22;39234;53.158;6.322;2023-03-14T02:50:21;8.70;99.90
53152;DHT22;39234;53.158;6.322;2023-03-14T02:52:48;8.90;99.90
53152;DHT22;39234;53.158;6.322;2023-03-14T02:55:14;10.90;99.90
53152;DHT22;39234;53.158;6.322;2023-03-14T02:57:40;8.90;99.90
53152;DHT22;39234;53.158;6.322;2023-03-14T03:00:06;9.00;99.90
53152;DHT22;39234;53.158;6.322;2023-03-14T03:02:32;8.80;99.90
53152;DHT22;39234;53.158;6.322;2023-03-14T03:04:58;8.90;99.90
53152;DHT22;39234;53.158;6.322;2023-03-14T03:07:24;8.70;99.90
53152;DHT22;39234;53.158;6.322;2023-03-14T03:09:49;8.70;99.90
53152;DHT22;39234;53.158;6.322;2023-03-14T03:12:15;8.50;99.90
53152;DHT22;39234;53.158;6.322;2023-03-14T03:14:41;9.10;99.90
53152;DHT22;39234;53.158;6.322;2023-03-14T03:17:07;8.60;99.90
53152;DHT22;39234;53.158;6.322;2023-03-14T03:19:33;8.70;99.90
53152;DHT22;39234;53.158;6.322;2023-03-14T03:21:59;8.30;99.90
53152;DHT22;39234;53.158;6.322;2023-03-14T03:24:25;8.60;99.90
53152;DHT22;39234;53.158;6.322;2023-03-14T03:26:52;8.50;99.90
53152;DHT22;39234;53.158;6.322;2023-03-14T03:29:18;8.40;99.90
53152;DHT22;39234;53.158;6.322;2023-03-14T03:31:44;8.60;99.90
53152;DHT22;39234;53.158;6.322;2023-03-14T03:34:12;8.50;99.90
53152;DHT22;39234;53.158;6.322;2023-03-14T03:36:38;8.40;99.90
53152;DHT22;39234;53.158;6.322;2023-03-14T03:39:03;8.70;99.90
53152;DHT22;39234;53.158;6.322;2023-03-14T03:41:30;8.50;99.90
53152;DHT22;39234;53.158;6.322;2023-03-14T03:43:56;8.40;99.90
53152;DHT22;39234;53.158;6.322;2023-03-14T03:46:22;8.50;99.90
53152;DHT22;39234;53.158;6.322;2023-03-14T03:48:48;8.40;99.90
53152;DHT22;39234;53.158;6.322;2023-03-14T03:51:15;8.40;99.90
53152;DHT22;39234;53.158;6.322;2023-03-14T03:53:41;8.50;99.90
53152;DHT22;39234;53.158;6.322;2023-03-14T03:56:08;8.80;99.90
53152;DHT22;39234;53.158;6.322;2023-03-14T03:58:34;8.30;99.90
53152;DHT22;39234;53.158;6.322;2023-03-14T04:01:00;9.50;99.90
53152;DHT22;39234;53.158;6.322;2023-03-14T04:03:26;8.30;99.90
53152;DHT22;39234;53.158;6.322;2023-03-14T04:06:03;8.50;99.90
53152;DHT22;39234;53.158;6.322;2023-03-14T04:08:29;9.70;99.90
53152;DHT22;39234;53.158;6.322;2023-03-14T04:10:57;8.50;99.90
53152;DHT22;39234;53.158;6.322;2023-03-14T04:13:23;8.60;99.90
53152;DHT22;39234;53.158;6.322;2023-03-14T04:15:50;8.60;99.90
53152;DHT22;39234;53.158;6.322;2023-03-14T04:18:16;8.50;99.90
53152;DHT22;39234;53.158;6.322;2023-03-14T04:20:42;8.20;99.90
53152;DHT22;39234;53.158;6.322;2023-03-14T04:23:07;8.30;99.90
53152;DHT22;39234;53.158;6.322;2023-03-14T04:25:33;8.50;99.90
53152;DHT22;39234;53.158;6.322;2023-03-14T04:27:59;8.40;99.90
53152;DHT22;39234;53.158;6.322;2023-03-14T04:30:25;8.50;99.90
53152;DHT22;39234;53.158;6.322;2023-03-14T04:32:50;8.60;99.90
53152;DHT22;39234;53.158;6.322;2023-03-14T04:35:16;8.60;99.90
53152;DHT22;39234;53.158;6.322;2023-03-14T04:37:42;8.50;99.90
53152;DHT22;39234;53.158;6.322;2023-03-14T04:40:10;8.30;99.90
53152;DHT22;39234;53.158;6.322;2023-03-14T04:42:36;8.50;99.90
53152;DHT22;39234;53.158;6.322;2023-03-14T04:45:01;8.30;99.90
53152;DHT22;39234;53.158;6.322;2023-03-14T04:47:28;8.40;99.90
53152;DHT22;39234;53.158;6.322;2023-03-14T04:49:53;8.30;99.90
53152;DHT22;39234;53.158;6.322;2023-03-14T04:52:19;8.40;99.90
53152;DHT22;39234;53.158;6.322;2023-03-14T04:54:45;8.50;99.90
53152;DHT22;39234;53.158;6.322;2023-03-14T04:57:11;8.40;99.90
53152;DHT22;39234;53.158;6.322;2023-03-14T04:59:36;8.40;99.90
53152;DHT22;39234;53.158;6.322;2023-03-14T05:02:02;8.30;99.90
53152;DHT22;39234;53.158;6.322;2023-03-14T05:04:28;8.50;99.90
53152;DHT22;39234;53.158;6.322;2023-03-14T05:06:54;8.40;99.90
53152;DHT22;39234;53.158;6.322;2023-03-14T05:09:20;8.20;99.90
53152;DHT22;39234;53.158;6.322;2023-03-14T05:11:46;8.40;99.90
53152;DHT22;39234;53.158;6.322;2023-03-14T05:14:12;8.40;99.90
53152;DHT22;39234;53.158;6.322;2023-03-14T05:16:37;8.40;99.90
53152;DHT22;39234;53.158;6.322;2023-03-14T05:19:03;8.20;99.90
53152;DHT22;39234;53.158;6.322;2023-03-14T05:21:29;8.20;99.90
53152;DHT22;39234;53.158;6.322;2023-03-14T05:23:55;8.10;99.90
53152;DHT22;39234;53.158;6.322;2023-03-14T05:26:20;8.30;99.90
53152;DHT22;39234;53.158;6.322;2023-03-14T05:28:46;8.30;99.90
53152;DHT22;39234;53.158;6.322;2023-03-14T05:31:12;8.30;99.90
53152;DHT22;39234;53.158;6.322;2023-03-14T05:33:38;8.20;99.90
53152;DHT22;39234;53.158;6.322;2023-03-14T05:36:04;8.30;99.90
53152;DHT22;39234;53.158;6.322;2023-03-14T05:38:29;8.30;99.90
53152;DHT22;39234;53.158;6.322;2023-03-14T05:40:55;8.10;99.90
53152;DHT22;39234;53.158;6.322;2023-03-14T05:43:21;8.20;99.90
53152;DHT22;39234;53.158;6.322;2023-03-14T05:45:47;8.70;99.90
53152;DHT22;39234;53.158;6.322;2023-03-14T05:48:12;8.20;99.90
53152;DHT22;39234;53.158;6.322;2023-03-14T05:50:39;8.30;99.90
53152;DHT22;39234;53.158;6.322;2023-03-14T05:53:05;8.20;99.90
53152;DHT22;39234;53.158;6.322;2023-03-14T05:55:31;8.30;99.90
53152;DHT22;39234;53.158;6.322;2023-03-14T05:57:56;8.30;99.90
53152;DHT22;39234;53.158;6.322;2023-03-14T06:00:22;8.20;99.90
53152;DHT22;39234;53.158;6.322;2023-03-14T06:02:48;8.20;99.90
53152;DHT22;39234;53.158;6.322;2023-03-14T06:05:14;9.20;99.90
53152;DHT22;39234;53.158;6.322;2023-03-14T06:07:39;8.10;99.90
53152;DHT22;39234;53.158;6.322;2023-03-14T06:10:06;8.20;99.90
53152;DHT22;39234;53.158;6.322;2023-03-14T06:12:31;8.20;99.90
53152;DHT22;39234;53.158;6.322;2023-03-14T06:14:57;8.10;99.90
53152;DHT22;39234;53.158;6.322;2023-03-14T06:17:23;8.10;99.90
53152;DHT22;39234;53.158;6.322;2023-03-14T06:19:49;8.10;99.90
53152;DHT22;39234;53.158;6.322;2023-03-14T06:22:14;8.70;99.90
53152;DHT22;39234;53.158;6.322;2023-03-14T06:24:40;8.70;99.90
53152;DHT22;39234;53.158;6.322;2023-03-14T06:27:06;7.80;99.90
53152;DHT22;39234;53.158;6.322;2023-03-14T06:29:32;8.80;99.90
53152;DHT22;39234;53.158;6.322;2023-03-14T06:31:57;9.30;99.90
53152;DHT22;39234;53.158;6.322;2023-03-14T06:34:23;6.80;99.90
53152;DHT22;39234;53.158;6.322;2023-03-14T06:36:49;6.70;99.90
53152;DHT22;39234;53.158;6.322;2023-03-14T06:39:14;6.50;99.90
53152;DHT22;39234;53.158;6.322;2023-03-14T06:41:40;6.50;99.90
53152;DHT22;39234;53.158;6.322;2023-03-14T06:44:06;6.50;99.90
53152;DHT22;39234;53.158;6.322;2023-03-14T06:46:32;6.20;99.90
53152;DHT22;39234;53.158;6.322;2023-03-14T06:48:57;6.30;99.90
53152;DHT22;39234;53.158;6.322;2023-03-14T06:51:23;6.20;99.90
53152;DHT22;39234;53.158;6.322;2023-03-14T06:53:49;6.00;99.90
53152;DHT22;39234;53.158;6.322;2023-03-14T06:56:14;5.90;99.90
53152;DHT22;39234;53.158;6.322;2023-03-14T06:58:40;5.70;99.90
53152;DHT22;39234;53.158;6.322;2023-03-14T07:01:24;5.70;99.90
53152;DHT22;39234;53.158;6.322;2023-03-14T07:06:16;5.50;99.90
53152;DHT22;39234;53.158;6.322;2023-03-14T07:08:42;5.30;99.90
53152;DHT22;39234;53.158;6.322;2023-03-14T07:11:08;5.20;99.90
53152;DHT22;39234;53.158;6.322;2023-03-14T07:13:35;5.10;99.90
53152;DHT22;39234;53.158;6.322;2023-03-14T07:16:01;5.10;99.90
53152;DHT22;39234;53.158;6.322;2023-03-14T07:18:27;5.00;99.90
53152;DHT22;39234;53.158;6.322;2023-03-14T07:23:18;4.90;99.90
53152;DHT22;39234;53.158;6.322;2023-03-14T07:45:13;4.70;99.90
53152;DHT22;39234;53.158;6.322;2023-03-14T07:47:39;4.70;99.90
53152;DHT22;39234;53.158;6.322;2023-03-14T07:50:05;4.90;99.90
53152;DHT22;39234;53.158;6.322;2023-03-14T07:52:31;4.80;99.90
53152;DHT22;39234;53.158;6.322;2023-03-14T07:59:50;4.80;99.90
53152;DHT22;39234;53.158;6.322;2023-03-14T08:02:16;4.90;99.90
53152;DHT22;39234;53.158;6.322;2023-03-14T08:07:09;5.00;99.90
53152;DHT22;39234;53.158;6.322;2023-03-14T08:09:35;5.20;99.90
53152;DHT22;39234;53.158;6.322;2023-03-14T08:19:20;5.40;99.90
53152;DHT22;39234;53.158;6.322;2023-03-14T08:26:38;5.50;99.90
53152;DHT22;39234;53.158;6.322;2023-03-14T08:29:04;5.60;99.90
53152;DHT22;39234;53.158;6.322;2023-03-14T08:33:59;5.70;99.90
53152;DHT22;39234;53.158;6.322;2023-03-14T08:38:51;6.30;99.90
53152;DHT22;39234;53.158;6.322;2023-03-14T08:48:34;6.70;99.90
53152;DHT22;39234;53.158;6.322;2023-03-14T08:51:11;6.80;99.90
53152;DHT22;39234;53.158;6.322;2023-03-14T08:53:41;6.90;99.90
53152;DHT22;39234;53.158;6.322;2023-03-14T08:56:07;6.70;99.90
53152;DHT22;39234;53.158;6.322;2023-03-14T08:58:38;6.80;99.90
53152;DHT22;39234;53.158;6.322;2023-03-14T09:01:05;7.00;99.90
53152;DHT22;39234;53.158;6.322;2023-03-14T09:03:31;7.20;99.90
53152;DHT22;39234;53.158;6.322;2023-03-14T09:06:02;7.10;99.90
53152;DHT22;39234;53.158;6.322;2023-03-14T09:08:29;7.40;99.90
53152;DHT22;39234;53.158;6.322;2023-03-14T09:10:55;8.10;99.90
53152;DHT22;39234;53.158;6.322;2023-03-14T09:13:20;8.20;99.90
53152;DHT22;39234;53.158;6.322;2023-03-14T09:15:54;8.00;99.90
53152;DHT22;39234;53.158;6.322;2023-03-14T09:18:20;8.20;99.90
53152;DHT22;39234;53.158;6.322;2023-03-14T09:20:46;9.00;99.90
53152;DHT22;39234;53.158;6.322;2023-03-14T09:23:12;8.20;99.90
53152;DHT22;39234;53.158;6.322;2023-03-14T09:25:37;7.80;99.90
53152;DHT22;39234;53.158;6.322;2023-03-14T09:28:04;7.30;99.90
53152;DHT22;39234;53.158;6.322;2023-03-14T09:30:29;7.00;99.90
53152;DHT22;39234;53.158;6.322;2023-03-14T09:32:55;6.80;99.90
53152;DHT22;39234;53.158;6.322;2023-03-14T09:37:48;6.60;99.90
53152;DHT22;39234;53.158;6.322;2023-03-14T09:40:18;6.50;99.90
53152;DHT22;39234;53.158;6.322;2023-03-14T09:42:48;6.60;99.90
53152;DHT22;39234;53.158;6.322;2023-03-14T09:45:33;6.70;99.90
53152;DHT22;39234;53.158;6.322;2023-03-14T09:48:02;6.60;99.90
53152;DHT22;39234;53.158;6.322;2023-03-14T09:50:38;6.40;99.90
53152;DHT22;39234;53.158;6.322;2023-03-14T09:53:11;6.50;99.90
53152;DHT22;39234;53.158;6.322;2023-03-14T09:55:38;6.50;99.90
53152;DHT22;39234;53.158;6.322;2023-03-14T09:58:10;6.50;99.90
53152;DHT22;39234;53.158;6.322;2023-03-14T10:00:37;6.60;99.90
53152;DHT22;39234;53.158;6.322;2023-03-14T10:05:37;6.80;99.90
53152;DHT22;39234;53.158;6.322;2023-03-14T10:10:30;6.90;99.90
53152;DHT22;39234;53.158;6.322;2023-03-14T10:15:55;7.00;99.90
53152;DHT22;39234;53.158;6.322;2023-03-14T10:21:25;7.30;99.90
53152;DHT22;39234;53.158;6.322;2023-03-14T10:23:47;7.40;99.90
53152;DHT22;39234;53.158;6.322;2023-03-14T10:26:24;7.40;99.90
53152;DHT22;39234;53.158;6.322;2023-03-14T10:28:53;7.20;99.90
53152;DHT22;39234;53.158;6.322;2023-03-14T10:31:26;7.20;99.90
53152;DHT22;39234;53.158;6.322;2023-03-14T10:34:00;7.30;99.90
53152;DHT22;39234;53.158;6.322;2023-03-14T10:36:29;7.40;99.90
53152;DHT22;39234;53.158;6.322;2023-03-14T10:42:28;7.80;99.90
53152;DHT22;39234;53.158;6.322;2023-03-14T10:45:04;7.80;99.90
53152;DHT22;39234;53.158;6.322;2023-03-14T10:47:33;7.70;99.90
53152;DHT22;39234;53.158;6.322;2023-03-14T10:50:34;7.30;99.90
53152;DHT22;39234;53.158;6.322;2023-03-14T10:53:02;7.20;99.90
53152;DHT22;39234;53.158;6.322;2023-03-14T10:55:41;7.20;99.90
53152;DHT22;39234;53.158;6.322;2023-03-14T10:58:28;7.30;99.90
53152;DHT22;39234;53.158;6.322;2023-03-14T11:09:34;7.30;99.90
53152;DHT22;39234;53.158;6.322;2023-03-14T11:21:02;7.00;99.90
53152;DHT22;39234;53.158;6.322;2023-03-14T11:23:46;7.20;99.90
53152;DHT22;39234;53.158;6.322;2023-03-14T11:29:21;7.60;99.90
53152;DHT22;39234;53.158;6.322;2023-03-14T11:31:48;7.80;99.90
53152;DHT22;39234;53.158;6.322;2023-03-14T11:34:20;8.00;99.90
53152;DHT22;39234;53.158;6.322;2023-03-14T11:37:00;8.10;99.90
53152;DHT22;39234;53.158;6.322;2023-03-14T11:39:38;8.30;99.90
53152;DHT22;39234;53.158;6.322;2023-03-14T11:42:04;8.30;99.90
53152;DHT22;39234;53.158;6.322;2023-03-14T11:44:38;8.50;99.90
53152;DHT22;39234;53.158;6.322;2023-03-14T11:47:22;8.60;99.90
53152;DHT22;39234;53.158;6.322;2023-03-14T11:50:04;8.80;99.90
53152;DHT22;39234;53.158;6.322;2023-03-14T11:52:37;8.70;99.90
53152;DHT22;39234;53.158;6.322;2023-03-14T11:55:13;8.60;99.90
53152;DHT22;39234;53.158;6.322;2023-03-14T11:57:44;8.50;99.90
53152;DHT22;39234;53.158;6.322;2023-03-14T12:00:20;10.40;99.90
53152;DHT22;39234;53.158;6.322;2023-03-14T12:08:10;7.90;99.90
53152;DHT22;39234;53.158;6.322;2023-03-14T12:10:42;7.90;99.90
53152;DHT22;39234;53.158;6.322;2023-03-14T12:13:12;7.50;99.90
53152;DHT22;39234;53.158;6.322;2023-03-14T12:16:04;7.30;99.90
53152;DHT22;39234;53.158;6.322;2023-03-14T12:18:38;7.70;99.90
53152;DHT22;39234;53.158;6.322;2023-03-14T12:21:07;8.00;99.90
53152;DHT22;39234;53.158;6.322;2023-03-14T12:28:37;8.10;99.90
53152;DHT22;39234;53.158;6.322;2023-03-14T12:36:48;8.20;99.90
53152;DHT22;39234;53.158;6.322;2023-03-14T12:39:43;8.20;99.90
53152;DHT22;39234;53.158;6.322;2023-03-14T12:42:31;7.90;99.90
53152;DHT22;39234;53.158;6.322;2023-03-14T12:47:51;8.10;99.90
53152;DHT22;39234;53.158;6.322;2023-03-14T12:50:35;8.10;99.90
53152;DHT22;39234;53.158;6.322;2023-03-14T12:55:52;8.20;99.90
53152;DHT22;39234;53.158;6.322;2023-03-14T12:58:34;8.10;99.90
53152;DHT22;39234;53.158;6.322;2023-03-14T13:01:04;8.10;99.90
53152;DHT22;39234;53.158;6.322;2023-03-14T13:04:00;8.10;99.90
53152;DHT22;39234;53.158;6.322;2023-03-14T13:12:16;7.60;99.90
53152;DHT22;39234;53.158;6.322;2023-03-14T13:14:45;7.40;99.90
53152;DHT22;39234;53.158;6.322;2023-03-14T13:17:12;7.10;99.90
53152;DHT22;39234;53.158;6.322;2023-03-14T13:22:15;7.40;99.90
53152;DHT22;39234;53.158;6.322;2023-03-14T13:24:42;7.40;99.90
53152;DHT22;39234;53.158;6.322;2023-03-14T13:27:17;7.40;99.90
53152;DHT22;39234;53.158;6.322;2023-03-14T13:29:43;7.60;99.90
53152;DHT22;39234;53.158;6.322;2023-03-14T13:32:27;7.70;99.90
53152;DHT22;39234;53.158;6.322;2023-03-14T13:34:58;8.00;99.90
53152;DHT22;39234;53.158;6.322;2023-03-14T13:37:26;8.10;99.90
53152;DHT22;39234;53.158;6.322;2023-03-14T13:39:54;8.10;99.90
53152;DHT22;39234;53.158;6.322;2023-03-14T13:42:21;8.00;99.90
53152;DHT22;39234;53.158;6.322;2023-03-14T13:44:52;8.00;99.90
53152;DHT22;39234;53.158;6.322;2023-03-14T13:47:20;7.90;99.90
53152;DHT22;39234;53.158;6.322;2023-03-14T13:49:49;7.80;99.90
53152;DHT22;39234;53.158;6.322;2023-03-14T13:52:40;7.50;99.90
53152;DHT22;39234;53.158;6.322;2023-03-14T13:55:15;7.00;99.90
53152;DHT22;39234;53.158;6.322;2023-03-14T13:57:52;6.70;99.90
53152;DHT22;39234;53.158;6.322;2023-03-14T14:00:26;6.70;99.90
53152;DHT22;39234;53.158;6.322;2023-03-14T14:02:57;6.80;99.90
53152;DHT22;39234;53.158;6.322;2023-03-14T14:05:27;6.50;99.90
53152;DHT22;39234;53.158;6.322;2023-03-14T14:10:20;6.80;99.90
53152;DHT22;39234;53.158;6.322;2023-03-14T14:12:55;7.00;99.90
53152;DHT22;39234;53.158;6.322;2023-03-14T14:15:31;6.90;99.90
53152;DHT22;39234;53.158;6.322;2023-03-14T14:18:03;6.90;99.90
53152;DHT22;39234;53.158;6.322;2023-03-14T14:20:44;6.60;99.90
53152;DHT22;39234;53.158;6.322;2023-03-14T14:23:18;6.50;99.90
53152;DHT22;39234;53.158;6.322;2023-03-14T14:25:54;6.50;99.90
53152;DHT22;39234;53.158;6.322;2023-03-14T14:30:46;6.30;99.90
53152;DHT22;39234;53.158;6.322;2023-03-14T14:33:21;6.20;99.90
53152;DHT22;39234;53.158;6.322;2023-03-14T14:35:57;4.20;99.90
53152;DHT22;39234;53.158;6.322;2023-03-14T14:40:58;6.30;99.90
53152;DHT22;39234;53.158;6.322;2023-03-14T14:43:27;6.30;99.90
53152;DHT22;39234;53.158;6.322;2023-03-14T14:45:54;6.20;99.90
53152;DHT22;39234;53.158;6.322;2023-03-14T14:48:26;6.50;99.90
53152;DHT22;39234;53.158;6.322;2023-03-14T14:51:04;6.70;99.90
53152;DHT22;39234;53.158;6.322;2023-03-14T14:53:35;6.70;99.90
53152;DHT22;39234;53.158;6.322;2023-03-14T14:56:25;6.80;99.90
53152;DHT22;39234;53.158;6.322;2023-03-14T14:58:57;6.80;99.90
53152;DHT22;39234;53.158;6.322;2023-03-14T15:01:25;6.70;99.90
53152;DHT22;39234;53.158;6.322;2023-03-14T15:03:55;6.50;99.90
53152;DHT22;39234;53.158;6.322;2023-03-14T15:08:48;6.70;99.90
53152;DHT22;39234;53.158;6.322;2023-03-14T15:11:22;6.80;99.90
53152;DHT22;39234;53.158;6.322;2023-03-14T15:13:49;7.00;99.90
53152;DHT22;39234;53.158;6.322;2023-03-14T15:16:18;6.90;99.90
53152;DHT22;39234;53.158;6.322;2023-03-14T15:18:47;7.20;99.90
53152;DHT22;39234;53.158;6.322;2023-03-14T15:23:41;6.80;99.90
53152;DHT22;39234;53.158;6.322;2023-03-14T15:26:15;6.50;99.90
53152;DHT22;39234;53.158;6.322;2023-03-14T15:28:41;6.20;99.90
53152;DHT22;39234;53.158;6.322;2023-03-14T15:31:10;6.20;99.90
53152;DHT22;39234;53.158;6.322;2023-03-14T15:33:37;6.00;99.90
53152;DHT22;39234;53.158;6.322;2023-03-14T15:36:04;6.00;99.90
53152;DHT22;39234;53.158;6.322;2023-03-14T15:38:30;5.70;99.90
53152;DHT22;39234;53.158;6.322;2023-03-14T15:48:20;5.60;99.90
53152;DHT22;39234;53.158;6.322;2023-03-14T16:15:09;4.70;99.90
53152;DHT22;39234;53.158;6.322;2023-03-14T16:20:04;4.50;99.90
53152;DHT22;39234;53.158;6.322;2023-03-14T17:06:27;4.20;99.90
53152;DHT22;39234;53.158;6.322;2023-03-14T17:08:54;4.20;99.90
53152;DHT22;39234;53.158;6.322;2023-03-14T17:23:33;4.00;99.90
53152;DHT22;39234;53.158;6.322;2023-03-14T17:28:26;3.70;99.90
53152;DHT22;39234;53.158;6.322;2023-03-14T17:31:03;3.80;99.90
53152;DHT22;39234;53.158;6.322;2023-03-14T17:48:08;4.50;99.90
53152;DHT22;39234;53.158;6.322;2023-03-14T18:00:20;3.00;99.90
53152;DHT22;39234;53.158;6.322;2023-03-14T18:05:15;2.90;99.90
53152;DHT22;39234;53.158;6.322;2023-03-14T18:10:07;2.80;99.90
53152;DHT22;39234;53.158;6.322;2023-03-14T18:12:35;2.70;99.90
53152;DHT22;39234;53.158;6.322;2023-03-14T18:24:49;2.50;99.90
53152;DHT22;39234;53.158;6.322;2023-03-14T18:29:41;2.30;99.90
53152;DHT22;39234;53.158;6.322;2023-03-14T18:54:05;2.40;99.90
53152;DHT22;39234;53.158;6.322;2023-03-14T19:08:50;2.80;99.90
53152;DHT22;39234;53.158;6.322;2023-03-14T19:16:13;2.80;99.90
53152;DHT22;39234;53.158;6.322;2023-03-14T19:21:08;2.80;99.90
53152;DHT22;39234;53.158;6.322;2023-03-14T19:23:37;2.80;99.90
53152;DHT22;39234;53.158;6.322;2023-03-14T19:28:30;2.60;99.90
53152;DHT22;39234;53.158;6.322;2023-03-14T19:31:00;2.50;99.90
53152;DHT22;39234;53.158;6.322;2023-03-14T19:50:33;2.30;99.90
53152;DHT22;39234;53.158;6.322;2023-03-14T20:00:19;2.10;99.90
53152;DHT22;39234;53.158;6.322;2023-03-14T20:07:40;1.90;99.90
53152;DHT22;39234;53.158;6.322;2023-03-14T20:10:07;2.10;99.90
53152;DHT22;39234;53.158;6.322;2023-03-14T20:54:03;1.90;99.90
53152;DHT22;39234;53.158;6.322;2023-03-14T21:16:00;2.30;99.90
53152;DHT22;39234;53.158;6.322;2023-03-14T21:20:53;2.30;99.90
53152;DHT22;39234;53.158;6.322;2023-03-14T21:52:40;2.40;99.90
53152;DHT22;39234;53.158;6.322;2023-03-14T21:55:07;2.30;99.90
53152;DHT22;39234;53.158;6.322;2023-03-14T22:12:12;2.10;94.50
53152;DHT22;39234;53.158;6.322;2023-03-14T22:19:36;2.00;99.90
53152;DHT22;39234;53.158;6.322;2023-03-14T22:41:32;1.90;99.90
53152;DHT22;39234;53.158;6.322;2023-03-14T23:15:41;2.50;99.90
53152;DHT22;39234;53.158;6.322;2023-03-14T23:35:11;2.40;99.90
53152;DHT22;39234;53.158;6.322;2023-03-14T23:40:05;2.30;99.90
53152;DHT22;39234;53.158;6.322;2023-03-14T23:42:32;2.20;99.90
53152;DHT22;39234;53.158;6.322;2023-03-14T23:59:36;0.80;99.90
